Terminal Aerodrome Forecast
Issued by NWS

Current Version | Previous Version | Graphics & Text | Print | Product List | Glossary Off
Versions: 1 2 3 4 5 6 7 8 9 10 11 12 13 14 15 16 17

000
FTUS42 KILM 281737 CCD
TAFCRE
TAF COR
KCRE 281737Z 2818/2918 08011KT 6SM -SHRA BKN035
      TEMPO 2818/2822 11011G18KT 3SM SHRA BKN026
     FM290000 09012KT 5SM SHRA OVC030
     FM290400 08007KT P6SM VCSH BKN040=

USA.gov is the U.S. government's official web portal to all federal, state and local government web resources and services.